Date,TemperatureHighF,TemperatureAvgF,TemperatureLowF,DewpointHighF,DewpointAvgF,DewpointLowF,HumidityHigh,HumidityAvg,HumidityLow,PressureMaxIn,PressureMinIn,WindSpeedMaxMPH,WindSpeedAvgMPH,GustSpeedMaxMPH,PrecipitationSumIn
2013-2-1,78.0,66.3,55.0,60.0,53.6,48.0,85,66,41,0.00,40.00,14,5,27,0.07
2013-2-2,76.0,64.5,55.0,59.0,53.5,48.0,85,69,52,0.00,40.00,8,4,17,0.00
2013-2-3,75.0,61.3,50.0,59.0,52.0,45.0,89,73,41,0.00,40.00,11,6,24,0.00
2013-2-4,74.0,62.3,53.0,56.0,51.3,45.0,79,68,54,0.00,40.00,18,7,34,0.00
2013-2-5,73.0,62.0,53.0,57.0,51.7,48.0,83,70,49,0.00,40.00,10,5,23,0.00
2013-2-6,78.0,63.2,54.0,58.0,52.3,47.0,82,68,46,0.00,40.00,8,4,21,0.00
2013-2-7,74.0,64.0,55.0,62.0,55.9,49.0,84,76,57,0.00,40.00,10,5,20,0.00
2013-2-8,76.0,64.6,55.0,64.0,56.2,49.0,90,75,55,0.00,40.00,9,5,19,0.00
2013-2-9,79.0,65.1,55.0,60.0,53.6,47.0,87,69,43,0.00,40.00,13,6,26,0.00
2013-2-10,78.0,66.0,54.0,60.0,54.2,50.0,87,68,42,0.00,40.00,15,6,31,0.00
2013-2-11,77.0,65.0,55.0,58.0,52.7,46.0,83,66,42,0.00,40.00,13,6,27,0.00
2013-2-12,75.0,62.3,54.0,56.0,50.5,45.0,82,67,43,0.00,40.00,16,6,29,0.00
2013-2-13,73.0,61.7,52.0,52.0,47.6,44.0,77,61,43,0.00,40.00,9,5,21,0.00
2013-2-14,74.0,61.7,53.0,54.0,49.1,45.0,79,65,44,0.00,40.00,10,6,22,0.00
2013-2-15,78.0,63.7,54.0,57.0,49.8,42.0,83,63,36,0.00,40.00,16,6,31,0.00
2013-2-16,76.0,65.1,55.0,58.0,52.7,48.0,81,66,43,0.00,40.00,15,6,31,0.00
2013-2-17,74.0,64.3,57.0,58.0,53.8,42.0,85,70,50,0.00,40.00,10,5,23,0.00
2013-2-18,75.0,66.2,60.0,58.0,52.6,42.0,84,63,41,0.00,40.00,15,7,36,0.00
2013-2-19,76.0,64.5,55.0,56.0,51.2,48.0,88,64,41,0.00,40.00,17,6,30,0.00
2013-2-20,77.0,65.9,56.0,59.0,51.2,45.0,88,61,37,0.00,40.00,16,7,35,0.00
2013-2-21,77.0,64.4,55.0,62.0,53.8,45.0,82,70,48,0.00,40.00,8,5,20,0.00
2013-2-22,71.0,65.5,57.0,61.0,54.1,49.0,84,67,50,0.00,40.00,14,5,25,0.00
2013-2-23,75.0,63.7,54.0,58.0,52.7,48.0,85,69,45,0.00,40.00,11,5,24,0.01
2013-2-24,76.0,64.1,53.0,59.0,53.4,49.0,89,70,44,0.00,40.00,16,6,36,0.01
2013-2-25,78.0,64.1,54.0,58.0,52.5,46.0,84,68,39,0.00,40.00,19,6,37,0.00
2013-2-26,76.0,64.3,58.0,55.0,50.2,38.0,80,61,41,0.00,40.00,21,7,41,0.00
2013-2-27,75.0,64.2,55.0,59.0,53.8,49.0,89,71,45,0.00,40.00,9,5,22,0.00
2013-2-28,72.0,62.3,54.0,57.0,52.5,46.0,87,71,55,0.00,40.00,10,5,18,0.00